Aérodrome :
LOGIN :

S'inscrire | Disclaimer

   EN    FR    IT 

 










Légende :    VFR   VFR Marginal   IFR   IFR Intensif   IFR Très Intensif
Visi : 
Plafond : 
>= 8 km
>= 3000ft
5 à 8 km
1000 à 3000 ft
1500m à 5 km
500 à 1000 ft
800 à 1500m
200 à 500 ft
< 800m
< 200 ft
Symboles :   Orages  Brouillard  Fortes neiges  Fortes précipitations  Vent > 20 kt
SIGMETs :   Divers  Orages  Givrage  Turbulence  Onde Orograph.  Cendres Volcan.







- Altitude de l'aérodrome : 1416 ft
- Code IATA : ZRH


LSZH - Zurich

DERNIER METAR :
  • 200650Z 00000KT CAVOK 15/14 Q1022 NOSIG

METARs EXPIRÉS :
  • 200620Z 00000KT CAVOK 14/13 Q1022 NOSIG
  • 200550Z VRB02KT CAVOK 14/13 Q1022 NOSIG
  • 200520Z 00000KT 9999 MIFG NSC 12/12 Q1022 NOSIG
  • 200450Z 00000KT 9999 MIFG NSC 12/12 Q1022 TEMPO 2500 BCFG

TAF TAF LSZH
Valide du 20 à 06h jusqu'au 21 à 12h UTC


200525Z 2006/2112 VRB03KT 9999 MIFG NSC TX28/2014Z TN12/2006Z TN11/2105Z
PROB40
TEMPO 2006/2007 3000 BCFG
BECMG 2007/2009 CAVOK
TEMPO 2011/2016 9999 FEW050
BECMG 2100/2103 6000 MIFG NSC
PROB40 2103/2107 2500 BCFG
BECMG 2107/2110 CAVOK
ATIS : +41 43 816 2295 (DEP) +41 43 816 2294 (ARR)
Pas de NOTAMs connus pour ce terrain.



MET'MAP, la Météo Aéronautique d'un coup d'oeil ! - Copyright ORBIFLY Décembre 2007 - Disclaimer

ORBIFLY MET'MAP TEAM :

Programmation & Développement : Alexandra Zaïnal
Conception & Développement : Baudouin d'Aumeries
Co-Programmation & Développement : Marc-Olivier Méhu
Soutien technique & logistique : Manuel Goepfert

Contact : metmap@orbifly.com




SOURCES & CREDITS :

   NOAA